Terminal Aerodrome Forecast
Issued by NWS Spokane, WA

Home | Current Version | Previous Version | Text Only | Print | Product List | Glossary On
Versions: 1 2 3 4 5 6 7 8 9 10 11 12 13 14 15 16 17 18 19 20 21 22 23 24 25 26 27 28 29 30 31 32 33 34 35 36 37 38 39 40 41 42 43 44 45 46 47 48 49 50
000
FTUS46 KOTX 181739
TAFGEG
TAF
KGEG 181739Z 1818/1918 17012G18KT 5SM BR VCSH FEW002 SCT030 OVC040
     FM182000 17013KT P6SM VCSH SCT030 OVC045
     FM190200 13011KT 6SM -RA BR BKN025 OVC040
     FM190800 15009KT 5SM -RA BR OVC012
     FM191200 17008KT 3SM -RASN BR SCT004 OVC007
     FM191400 19008KT 3SM BR OVC004=

USA.gov is the U.S. government's official web portal to all federal, state and local government web resources and services.